Time;durP1;ratioP1;P1;durP2;ratioP2;P2;SDS_P1;SDS_P2;PMS_P1;PMS_P2;Temp;Humidity;BMP_temperature;BMP_pressure;BME280_temperature;BME280_humidity;BME280_pressure;Samples;Min_cycle;Max_cycle;Signal;HPM_P1;HPM_P2
2022/10/10 00:02:05;;;;;;;59.37;4.13;;;;;;;;;;5114592;27;20879;-68
2022/10/10 00:04:33;;;;;;;61.60;4.50;;;;;;;;;;5115020;28;20445;-68
2022/10/10 00:07:00;;;;;;;61.03;3.53;;;;;;;;;;5114949;28;20977;-68
2022/10/10 00:09:27;;;;;;;60.60;5.57;;;;;;;;;;5114670;28;20441;-68
2022/10/10 00:11:54;;;;;;;59.20;4.30;;;;;;;;;;5114800;28;20453;-68
2022/10/10 00:14:21;;;;;;;59.40;3.60;;;;;;;;;;5114445;28;20965;-68
2022/10/10 00:16:48;;;;;;;58.73;3.60;;;;;;;;;;5114982;28;20860;-68
2022/10/10 00:19:17;;;;;;;59.00;3.33;;;;;;;;;;5114677;28;20446;-68
2022/10/10 00:21:44;;;;;;;60.27;4.10;;;;;;;;;;5114895;28;20829;-68
2022/10/10 00:24:11;;;;;;;60.83;4.13;;;;;;;;;;5114184;27;20456;-68
2022/10/10 00:26:38;;;;;;;60.50;3.80;;;;;;;;;;5114475;28;20853;-68
2022/10/10 00:29:05;;;;;;;59.60;4.03;;;;;;;;;;5114570;28;20457;-68
2022/10/10 00:31:32;;;;;;;61.40;4.40;;;;;;;;;;5114474;28;20453;-68
2022/10/10 00:33:59;;;;;;;59.43;4.10;;;;;;;;;;5114483;27;20463;-68
2022/10/10 00:36:28;;;;;;;59.30;3.70;;;;;;;;;;5113838;28;20472;-68
2022/10/10 00:38:55;;;;;;;58.87;3.30;;;;;;;;;;5114003;28;20466;-68
2022/10/10 00:41:22;;;;;;;58.63;3.37;;;;;;;;;;5114641;28;20449;-68
2022/10/10 00:44:03;;;;;;;60.53;4.20;;;;;;;;;;5114558;28;20820;-68
2022/10/10 00:46:30;;;;;;;59.73;4.10;;;;;;;;;;5114062;28;20489;-68
2022/10/10 00:48:57;;;;;;;59.57;3.83;;;;;;;;;;5113333;28;20449;-68
2022/10/10 00:51:24;;;;;;;59.77;4.30;;;;;;;;;;5114146;27;20536;-68
2022/10/10 00:53:54;;;;;;;63.20;4.03;;;;;;;;;;5114152;28;20442;-68
2022/10/10 00:56:24;;;;;;;61.43;3.83;;;;;;;;;;5113976;28;20993;-68
2022/10/10 00:58:52;;;;;;;60.57;3.90;;;;;;;;;;5113318;27;20598;-68
2022/10/10 01:01:19;;;;;;;59.23;3.77;;;;;;;;;;5113718;28;20441;-68
2022/10/10 01:03:46;;;;;;;60.57;4.00;;;;;;;;;;5113990;28;20446;-68
2022/10/10 01:06:13;;;;;;;59.60;3.60;;;;;;;;;;5113636;28;20490;-68
2022/10/10 01:08:40;;;;;;;58.80;3.23;;;;;;;;;;5113707;28;20446;-68
2022/10/10 01:11:15;;;;;;;58.63;3.27;;;;;;;;;;5113131;28;20449;-68
2022/10/10 01:13:47;;;;;;;59.37;3.60;;;;;;;;;;5113744;28;20441;-68
2022/10/10 01:16:16;;;;;;;59.17;3.10;;;;;;;;;;5113694;28;20480;-67
2022/10/10 01:18:46;;;;;;;58.50;3.27;;;;;;;;;;5113480;28;20452;-68
2022/10/10 01:21:20;;;;;;;59.70;4.10;;;;;;;;;;5113387;28;20457;-68
2022/10/10 01:24:05;;;;;;;59.23;3.40;;;;;;;;;;5113353;28;20458;-68
2022/10/10 01:26:44;;;;;;;59.47;4.40;;;;;;;;;;5113435;28;20484;-68
2022/10/10 01:29:16;;;;;;;58.57;3.33;;;;;;;;;;5113045;28;20445;-68
2022/10/10 01:31:46;;;;;;;59.27;3.60;;;;;;;;;;5113616;28;20445;-68
2022/10/10 01:34:17;;;;;;;58.83;3.57;;;;;;;;;;5112854;28;20458;-68
2022/10/10 01:36:48;;;;;;;59.90;4.10;;;;;;;;;;5113169;28;20461;-68
2022/10/10 01:39:19;;;;;;;62.00;3.77;;;;;;;;;;5112910;28;20446;-68
2022/10/10 01:41:48;;;;;;;59.93;3.83;;;;;;;;;;5113212;28;20449;-68
2022/10/10 01:44:16;;;;;;;64.00;4.60;;;;;;;;;;5112941;28;20457;-68
2022/10/10 01:46:43;;;;;;;59.40;4.20;;;;;;;;;;5112552;28;20848;-68
2022/10/10 01:49:10;;;;;;;59.17;3.70;;;;;;;;;;5112805;28;20548;-68
2022/10/10 01:51:45;;;;;;;60.27;3.80;;;;;;;;;;5112968;28;20454;-68
2022/10/10 01:54:18;;;;;;;59.97;3.70;;;;;;;;;;5111956;28;20454;-68
2022/10/10 01:56:48;;;;;;;59.77;4.00;;;;;;;;;;5112399;28;20473;-68
2022/10/10 01:59:22;;;;;;;63.63;3.60;;;;;;;;;;5113021;28;20823;-68
2022/10/10 02:01:53;;;;;;;60.70;4.00;;;;;;;;;;5113010;28;20449;-68
2022/10/10 02:04:25;;;;;;;59.67;3.73;;;;;;;;;;5112899;28;20548;-68
2022/10/10 02:06:54;;;;;;;59.10;3.20;;;;;;;;;;5112851;28;20848;-68
2022/10/10 02:09:24;;;;;;;60.30;3.80;;;;;;;;;;5111648;28;20450;-68
2022/10/10 02:11:51;;;;;;;58.87;3.23;;;;;;;;;;5112730;28;20441;-68
2022/10/10 02:14:20;;;;;;;59.47;3.40;;;;;;;;;;5112754;28;20842;-68
2022/10/10 02:16:50;;;;;;;60.70;3.80;;;;;;;;;;5112592;28;20464;-68
2022/10/10 02:19:19;;;;;;;59.10;3.80;;;;;;;;;;5111631;28;20445;-68
2022/10/10 02:21:47;;;;;;;58.70;3.23;;;;;;;;;;5111976;28;20461;-68
2022/10/10 02:24:15;;;;;;;59.77;4.20;;;;;;;;;;5112666;28;20814;-68
2022/10/10 02:26:44;;;;;;;59.40;3.63;;;;;;;;;;5112264;28;20481;-68
2022/10/10 02:29:14;;;;;;;60.40;4.43;;;;;;;;;;5112160;28;20960;-68
2022/10/10 02:31:45;;;;;;;58.80;3.67;;;;;;;;;;5111555;28;20472;-68
2022/10/10 02:34:16;;;;;;;58.87;3.70;;;;;;;;;;5112450;28;20538;-68
2022/10/10 02:36:45;;;;;;;59.37;3.87;;;;;;;;;;5112478;28;20544;-68
2022/10/10 02:39:13;;;;;;;60.07;4.07;;;;;;;;;;5111923;28;20460;-68
2022/10/10 02:41:42;;;;;;;59.67;3.70;;;;;;;;;;5112097;28;20445;-68
2022/10/10 02:44:11;;;;;;;59.03;4.47;;;;;;;;;;5111629;28;20452;-68
2022/10/10 02:46:38;;;;;;;58.30;3.10;;;;;;;;;;5112230;28;20493;-68
2022/10/10 02:49:08;;;;;;;61.10;4.03;;;;;;;;;;5112029;28;20446;-68
2022/10/10 02:51:36;;;;;;;59.40;4.00;;;;;;;;;;5112579;28;20934;-68
2022/10/10 02:54:03;;;;;;;58.80;3.87;;;;;;;;;;5111555;28;20446;-68
2022/10/10 02:56:31;;;;;;;60.13;3.90;;;;;;;;;;5111946;28;20462;-68
2022/10/10 02:58:58;;;;;;;62.60;4.80;;;;;;;;;;5111485;28;20479;-68
2022/10/10 03:01:25;;;;;;;60.60;4.80;;;;;;;;;;5112304;28;20461;-68
2022/10/10 03:03:52;;;;;;;60.77;4.00;;;;;;;;;;5112134;28;20459;-68
2022/10/10 03:06:20;;;;;;;59.13;3.87;;;;;;;;;;5111277;28;20850;-68
2022/10/10 03:08:48;;;;;;;59.00;3.70;;;;;;;;;;5111724;28;20445;-68
2022/10/10 03:11:15;;;;;;;59.30;4.20;;;;;;;;;;5111845;28;20454;-68
2022/10/10 03:13:43;;;;;;;61.03;4.40;;;;;;;;;;5111885;28;20957;-68
2022/10/10 03:16:10;;;;;;;58.90;3.60;;;;;;;;;;5111900;28;20467;-68
2022/10/10 03:18:37;;;;;;;60.27;4.23;;;;;;;;;;5110914;28;20469;-68
2022/10/10 03:21:04;;;;;;;59.00;3.07;;;;;;;;;;5111954;28;20950;-68
2022/10/10 03:23:34;;;;;;;59.53;4.07;;;;;;;;;;5112307;28;20450;-68
2022/10/10 03:26:02;;;;;;;60.37;3.90;;;;;;;;;;5111620;28;20516;-68
2022/10/10 03:28:29;;;;;;;58.70;3.30;;;;;;;;;;5111233;28;20522;-68
2022/10/10 03:30:57;;;;;;;59.27;3.53;;;;;;;;;;5111746;28;20446;-68
2022/10/10 03:33:24;;;;;;;63.17;4.90;;;;;;;;;;5111765;28;20934;-68
2022/10/10 03:35:51;;;;;;;59.10;3.93;;;;;;;;;;5115402;28;20480;-68
2022/10/10 03:38:18;;;;;;;58.90;3.10;;;;;;;;;;5115500;28;20453;-68
2022/10/10 03:40:45;;;;;;;60.27;3.73;;;;;;;;;;5114577;27;20449;-68
2022/10/10 03:43:14;;;;;;;59.80;4.60;;;;;;;;;;5115770;27;20446;-68
2022/10/10 03:45:42;;;;;;;61.90;4.00;;;;;;;;;;5114933;28;20465;-68
2022/10/10 03:48:09;;;;;;;60.03;3.80;;;;;;;;;;5115474;27;20478;-68
2022/10/10 03:50:36;;;;;;;58.87;3.77;;;;;;;;;;5115065;28;20445;-68
2022/10/10 03:53:04;;;;;;;60.60;3.50;;;;;;;;;;5114648;28;20475;-68
2022/10/10 03:55:31;;;;;;;59.63;4.20;;;;;;;;;;5115278;28;20976;-68
2022/10/10 03:57:58;;;;;;;59.27;2.90;;;;;;;;;;5115412;28;20810;-68
2022/10/10 04:00:27;;;;;;;59.17;3.93;;;;;;;;;;5115155;28;20441;-68
2022/10/10 04:02:54;;;;;;;59.50;3.17;;;;;;;;;;5114613;28;20456;-68
2022/10/10 04:05:21;;;;;;;60.27;4.70;;;;;;;;;;5114807;28;20472;-68
2022/10/10 04:07:48;;;;;;;59.90;3.83;;;;;;;;;;5114995;28;20480;-69
2022/10/10 04:10:15;;;;;;;60.27;4.60;;;;;;;;;;5114917;28;20449;-68
2022/10/10 04:12:42;;;;;;;58.70;3.53;;;;;;;;;;5115151;28;20442;-68
2022/10/10 04:15:09;;;;;;;59.17;3.33;;;;;;;;;;5114156;28;20477;-68
2022/10/10 04:17:38;;;;;;;60.17;3.57;;;;;;;;;;5114936;28;20449;-68
2022/10/10 04:20:05;;;;;;;59.13;3.83;;;;;;;;;;5114935;28;20957;-68
2022/10/10 04:22:33;;;;;;;59.97;3.60;;;;;;;;;;5114251;28;21017;-68
2022/10/10 04:25:00;;;;;;;60.43;3.63;;;;;;;;;;5114752;28;20467;-68
2022/10/10 04:27:27;;;;;;;60.10;3.87;;;;;;;;;;5114001;28;20481;-68
2022/10/10 04:29:54;;;;;;;58.17;3.30;;;;;;;;;;5114397;28;20453;-68
2022/10/10 04:32:21;;;;;;;58.27;3.23;;;;;;;;;;5114375;28;20441;-68
2022/10/10 04:34:50;;;;;;;59.30;4.00;;;;;;;;;;5114565;28;20692;-68
2022/10/10 04:37:17;;;;;;;58.80;3.27;;;;;;;;;;5114217;28;20464;-68
2022/10/10 04:39:44;;;;;;;60.70;4.00;;;;;;;;;;5113829;28;20451;-68
2022/10/10 04:42:11;;;;;;;59.13;3.50;;;;;;;;;;5114520;27;20467;-68
2022/10/10 04:44:38;;;;;;;61.97;3.50;;;;;;;;;;5114065;28;20739;-68
2022/10/10 04:47:06;;;;;;;62.00;4.03;;;;;;;;;;5114677;28;20554;-68
2022/10/10 04:49:33;;;;;;;59.77;4.13;;;;;;;;;;5113461;28;20481;-68
2022/10/10 04:52:01;;;;;;;61.23;4.60;;;;;;;;;;5114474;28;20456;-68
2022/10/10 04:54:28;;;;;;;58.73;3.60;;;;;;;;;;5114350;28;20453;-68
2022/10/10 04:56:56;;;;;;;58.97;3.80;;;;;;;;;;5114049;28;20461;-68
2022/10/10 04:59:23;;;;;;;59.63;4.23;;;;;;;;;;5113833;28;20445;-68
2022/10/10 05:01:50;;;;;;;59.33;3.60;;;;;;;;;;5113211;28;20452;-68
2022/10/10 05:04:17;;;;;;;59.30;3.63;;;;;;;;;;5114256;28;20452;-68
2022/10/10 05:06:44;;;;;;;59.03;3.90;;;;;;;;;;5113942;28;20485;-69
2022/10/10 05:09:13;;;;;;;60.73;4.20;;;;;;;;;;5113629;28;20450;-68
2022/10/10 05:11:40;;;;;;;59.80;4.90;;;;;;;;;;5113509;28;20508;-68
2022/10/10 05:14:07;;;;;;;59.43;4.03;;;;;;;;;;5113583;28;20807;-68
2022/10/10 05:16:34;;;;;;;60.87;4.27;;;;;;;;;;5113481;28;21104;-68
2022/10/10 05:19:01;;;;;;;59.53;3.53;;;;;;;;;;5113559;28;20442;-68
2022/10/10 05:21:28;;;;;;;58.57;3.40;;;;;;;;;;5113812;28;20449;-68
2022/10/10 05:23:55;;;;;;;59.30;3.97;;;;;;;;;;5112828;28;20452;-68
2022/10/10 05:26:24;;;;;;;63.00;6.00;;;;;;;;;;5113418;28;20494;-68
2022/10/10 05:28:51;;;;;;;61.10;4.43;;;;;;;;;;5113098;28;20456;-68
2022/10/10 05:31:18;;;;;;;57.73;3.40;;;;;;;;;;5113558;28;20446;-68
2022/10/10 05:33:45;;;;;;;58.47;4.07;;;;;;;;;;5113377;27;20450;-68
2022/10/10 05:36:13;;;;;;;62.27;5.13;;;;;;;;;;5112747;27;20825;-68
2022/10/10 05:38:41;;;;;;;59.10;3.53;;;;;;;;;;5113046;27;20441;-68
2022/10/10 05:41:08;;;;;;;60.10;4.33;;;;;;;;;;5113327;28;20614;-68
2022/10/10 05:43:37;;;;;;;61.43;3.63;;;;;;;;;;5113436;28;20446;-68
2022/10/10 05:46:04;;;;;;;58.90;3.97;;;;;;;;;;5112768;28;20474;-68
2022/10/10 05:48:31;;;;;;;61.00;5.33;;;;;;;;;;5112977;28;20815;-69
2022/10/10 05:50:59;;;;;;;61.20;4.40;;;;;;;;;;5113072;28;20447;-68
2022/10/10 05:53:27;;;;;;;60.47;4.40;;;;;;;;;;5113086;28;20449;-68
2022/10/10 05:55:54;;;;;;;59.37;3.50;;;;;;;;;;5112745;28;20458;-68
2022/10/10 05:58:21;;;;;;;58.97;3.50;;;;;;;;;;5111507;28;20452;-68
2022/10/10 06:00:50;;;;;;;60.30;4.47;;;;;;;;;;5112899;28;20458;-68
2022/10/10 06:03:17;;;;;;;60.70;4.47;;;;;;;;;;5112992;28;20530;-68
2022/10/10 06:05:44;;;;;;;60.20;3.60;;;;;;;;;;5112844;27;20483;-68
2022/10/10 06:08:11;;;;;;;60.13;4.33;;;;;;;;;;5112661;28;20491;-68
2022/10/10 06:10:39;;;;;;;62.57;4.20;;;;;;;;;;5111992;28;20449;-68
2022/10/10 06:13:07;;;;;;;58.80;3.90;;;;;;;;;;5112717;28;20479;-68
2022/10/10 06:15:34;;;;;;;60.60;3.77;;;;;;;;;;5112638;28;20480;-68
2022/10/10 06:18:02;;;;;;;60.40;3.83;;;;;;;;;;5112730;28;20917;-68
2022/10/10 06:20:30;;;;;;;59.10;3.83;;;;;;;;;;5108172;28;20446;-67
2022/10/10 06:22:57;;;;;;;59.37;4.07;;;;;;;;;;5097805;28;20946;-68
2022/10/10 06:25:24;;;;;;;60.77;5.00;;;;;;;;;;5092338;28;20477;-68
2022/10/10 06:27:51;;;;;;;58.87;3.23;;;;;;;;;;5092515;28;20925;-68
2022/10/10 06:30:18;;;;;;;61.03;4.17;;;;;;;;;;5091907;28;20454;-68
2022/10/10 06:32:45;;;;;;;59.60;3.90;;;;;;;;;;5091751;28;20529;-68
2022/10/10 06:35:14;;;;;;;59.57;4.17;;;;;;;;;;5091938;28;20489;-69
2022/10/10 06:37:41;;;;;;;58.53;4.30;;;;;;;;;;5092181;28;20450;-68
2022/10/10 06:40:08;;;;;;;60.73;3.30;;;;;;;;;;5091679;28;20454;-68
2022/10/10 06:42:35;;;;;;;59.60;4.10;;;;;;;;;;5091924;28;20446;-68
2022/10/10 06:45:02;;;;;;;59.10;3.50;;;;;;;;;;5091433;28;20473;-68
2022/10/10 06:47:30;;;;;;;59.33;4.07;;;;;;;;;;5091922;28;20844;-68
2022/10/10 06:49:57;;;;;;;60.70;4.77;;;;;;;;;;5091493;28;20447;-68
2022/10/10 06:52:26;;;;;;;60.63;4.30;;;;;;;;;;5091731;28;20450;-68
2022/10/10 06:54:53;;;;;;;62.00;5.40;;;;;;;;;;5091723;28;20954;-68
2022/10/10 06:57:20;;;;;;;60.83;4.37;;;;;;;;;;5091921;28;20450;-69
2022/10/10 06:59:47;;;;;;;58.80;3.47;;;;;;;;;;5091569;28;20453;-68
2022/10/10 07:02:15;;;;;;;62.27;4.63;;;;;;;;;;5091146;28;20779;-69
2022/10/10 07:04:42;;;;;;;59.90;4.30;;;;;;;;;;5091619;28;20442;-68
2022/10/10 07:07:09;;;;;;;60.77;4.10;;;;;;;;;;5091658;28;20491;-68
2022/10/10 07:09:37;;;;;;;59.83;4.27;;;;;;;;;;5095152;28;20448;-68
2022/10/10 07:12:05;;;;;;;61.60;4.77;;;;;;;;;;5095905;28;20454;-69
2022/10/10 07:14:32;;;;;;;58.77;4.03;;;;;;;;;;5095085;28;20467;-68
2022/10/10 07:16:59;;;;;;;59.70;3.83;;;;;;;;;;5095662;28;20463;-68
2022/10/10 07:19:26;;;;;;;60.17;4.63;;;;;;;;;;5095593;28;20460;-69
2022/10/10 07:21:53;;;;;;;60.27;4.07;;;;;;;;;;5095776;28;20873;-68
2022/10/10 07:24:21;;;;;;;62.47;4.10;;;;;;;;;;5095399;28;20447;-68
2022/10/10 07:26:53;;;;;;;59.90;4.60;;;;;;;;;;5095158;28;20472;-68
2022/10/10 07:29:20;;;;;;;59.53;4.03;;;;;;;;;;5095204;28;20457;-68
2022/10/10 07:31:47;;;;;;;59.90;4.57;;;;;;;;;;5095304;28;20447;-69
2022/10/10 07:34:14;;;;;;;59.00;3.73;;;;;;;;;;5095528;28;20456;-68
2022/10/10 07:36:42;;;;;;;60.53;3.87;;;;;;;;;;5094554;28;20466;-67
2022/10/10 07:39:09;;;;;;;59.50;4.30;;;;;;;;;;5113584;28;20934;-68
2022/10/10 07:41:36;;;;;;;58.97;3.93;;;;;;;;;;5115373;28;20537;-68
2022/10/10 07:44:05;;;;;;;60.40;4.10;;;;;;;;;;5115293;28;20455;-67
2022/10/10 07:46:32;;;;;;;58.90;3.60;;;;;;;;;;5115238;28;21022;-67
2022/10/10 07:48:59;;;;;;;61.10;4.30;;;;;;;;;;5114398;28;20486;-68
2022/10/10 07:51:26;;;;;;;59.23;3.93;;;;;;;;;;5115431;28;20458;-67
2022/10/10 07:53:54;;;;;;;58.87;3.90;;;;;;;;;;5115178;28;20447;-68
2022/10/10 07:56:21;;;;;;;59.70;4.80;;;;;;;;;;5114922;28;20468;-68
2022/10/10 07:58:48;;;;;;;60.77;4.23;;;;;;;;;;5114098;28;20452;-68
2022/10/10 08:01:16;;;;;;;60.43;4.20;;;;;;;;;;5112975;28;20450;-68
2022/10/10 08:03:43;;;;;;;60.10;4.57;;;;;;;;;;5114896;27;20443;-68
2022/10/10 08:06:12;;;;;;;59.37;4.37;;;;;;;;;;5115149;28;20468;-68
2022/10/10 08:08:39;;;;;;;59.37;4.07;;;;;;;;;;5114561;28;20489;-68
2022/10/10 08:11:07;;;;;;;59.27;3.97;;;;;;;;;;5114700;28;20468;-68
2022/10/10 08:13:35;;;;;;;59.67;3.73;;;;;;;;;;5112354;28;20882;-68
2022/10/10 08:16:02;;;;;;;59.77;3.93;;;;;;;;;;5114870;28;20479;-68
2022/10/10 08:18:30;;;;;;;60.10;4.47;;;;;;;;;;5114519;28;20437;-68
2022/10/10 08:21:01;;;;;;;60.97;4.87;;;;;;;;;;5113875;28;20455;-68
2022/10/10 08:23:28;;;;;;;58.97;3.63;;;;;;;;;;5114722;28;20452;-68
2022/10/10 08:25:55;;;;;;;60.23;4.07;;;;;;;;;;5113724;28;21015;-68
2022/10/10 08:28:22;;;;;;;58.77;3.77;;;;;;;;;;5114571;27;20485;-68
2022/10/10 08:30:49;;;;;;;59.10;3.90;;;;;;;;;;5114322;28;20457;-68
2022/10/10 08:33:16;;;;;;;59.83;4.73;;;;;;;;;;5114901;28;20623;-68
2022/10/10 08:35:45;;;;;;;59.60;4.10;;;;;;;;;;5112401;28;20482;-68
2022/10/10 08:38:13;;;;;;;60.30;3.70;;;;;;;;;;5113984;28;20481;-68
2022/10/10 08:40:45;;;;;;;61.87;4.30;;;;;;;;;;5113933;28;20489;-68
2022/10/10 08:43:20;;;;;;;60.20;3.80;;;;;;;;;;5114024;28;20448;-68
2022/10/10 08:45:47;;;;;;;59.10;4.30;;;;;;;;;;5114292;28;20477;-68
2022/10/10 08:48:16;;;;;;;60.03;4.07;;;;;;;;;;5113738;28;20520;-68
2022/10/10 08:50:45;;;;;;;58.43;3.50;;;;;;;;;;5113779;27;20446;-68
2022/10/10 08:53:15;;;;;;;60.17;3.70;;;;;;;;;;5113994;28;20938;-68
2022/10/10 08:55:43;;;;;;;60.10;3.87;;;;;;;;;;5114205;28;20488;-68
2022/10/10 08:58:13;;;;;;;59.77;3.87;;;;;;;;;;5113799;28;20449;-68
2022/10/10 09:00:42;;;;;;;60.30;4.20;;;;;;;;;;5113045;28;20456;-68
2022/10/10 09:03:15;;;;;;;61.00;3.90;;;;;;;;;;5113898;28;20446;-68
2022/10/10 09:05:47;;;;;;;59.30;3.30;;;;;;;;;;5113694;28;20473;-68
2022/10/10 09:08:24;;;;;;;63.70;4.40;;;;;;;;;;5111565;28;20490;-68
2022/10/10 09:10:55;;;;;;;58.40;3.53;;;;;;;;;;5112609;28;20510;-68
2022/10/10 09:13:27;;;;;;;60.00;3.60;;;;;;;;;;5113697;28;20452;-68
2022/10/10 09:15:56;;;;;;;58.80;3.77;;;;;;;;;;5113435;28;21005;-68
2022/10/10 09:18:31;;;;;;;59.87;3.70;;;;;;;;;;5113707;28;20441;-68
2022/10/10 09:21:01;;;;;;;60.97;4.40;;;;;;;;;;5113601;28;20444;-68
2022/10/10 09:23:31;;;;;;;62.20;3.60;;;;;;;;;;5112792;28;20453;-68
2022/10/10 09:26:00;;;;;;;59.40;3.90;;;;;;;;;;5113387;28;20469;-68
2022/10/10 09:28:34;;;;;;;62.00;3.80;;;;;;;;;;5113026;28;20484;-68
2022/10/10 09:31:02;;;;;;;59.33;3.80;;;;;;;;;;5113570;28;20456;-68
2022/10/10 09:33:32;;;;;;;59.17;4.07;;;;;;;;;;5112885;28;20446;-68
2022/10/10 09:36:02;;;;;;;58.90;3.43;;;;;;;;;;5113012;28;20485;-68
2022/10/10 09:38:33;;;;;;;61.80;3.63;;;;;;;;;;5113001;28;20947;-68
2022/10/10 09:41:02;;;;;;;60.30;3.87;;;;;;;;;;5112150;27;20454;-68
2022/10/10 09:43:31;;;;;;;58.37;3.20;;;;;;;;;;5113077;28;20949;-68
2022/10/10 09:45:58;;;;;;;58.57;3.60;;;;;;;;;;5112148;28;20464;-68
2022/10/10 09:48:27;;;;;;;58.47;3.40;;;;;;;;;;5112959;28;20504;-68
2022/10/10 09:50:55;;;;;;;58.50;3.67;;;;;;;;;;5112772;28;20449;-68
2022/10/10 09:53:22;;;;;;;58.83;3.20;;;;;;;;;;5112913;28;20449;-69
2022/10/10 09:55:52;;;;;;;59.17;3.33;;;;;;;;;;5112788;28;20468;-68
2022/10/10 09:58:22;;;;;;;59.53;3.30;;;;;;;;;;5112519;28;20473;-68
2022/10/10 10:00:49;;;;;;;58.80;3.00;;;;;;;;;;5112879;27;20448;-68
2022/10/10 10:03:18;;;;;;;63.50;3.00;;;;;;;;;;5112692;28;20790;-68
2022/10/10 10:05:46;;;;;;;58.37;3.30;;;;;;;;;;5112591;28;20466;-68
2022/10/10 10:08:20;;;;;;;58.67;3.00;;;;;;;;;;5112071;28;20584;-68
2022/10/10 10:10:47;;;;;;;58.37;2.77;;;;;;;;;;5109760;28;20524;-69
2022/10/10 10:13:19;;;;;;;58.30;2.70;;;;;;;;;;5111958;28;20468;-69
2022/10/10 10:15:49;;;;;;;58.53;2.80;;;;;;;;;;5112331;27;20468;-69
2022/10/10 10:18:23;;;;;;;58.70;3.10;;;;;;;;;;5112231;28;20441;-69
2022/10/10 10:20:51;;;;;;;58.30;2.90;;;;;;;;;;5111639;28;20865;-69
2022/10/10 10:23:25;;;;;;;58.10;2.60;;;;;;;;;;5112559;28;20445;-69
2022/10/10 10:25:59;;;;;;;57.97;2.67;;;;;;;;;;5112014;28;20473;-68
2022/10/10 10:28:28;;;;;;;58.10;3.07;;;;;;;;;;5112133;28;20503;-69
2022/10/10 10:30:57;;;;;;;58.77;3.53;;;;;;;;;;5111876;28;20453;-68
2022/10/10 10:33:35;;;;;;;59.00;3.57;;;;;;;;;;5112457;28;20829;-69
2022/10/10 10:36:06;;;;;;;58.30;3.23;;;;;;;;;;5111591;28;20457;-69
2022/10/10 10:38:40;;;;;;;61.17;3.07;;;;;;;;;;5111881;28;20460;-69
2022/10/10 10:41:11;;;;;;;58.37;2.80;;;;;;;;;;5111812;28;20446;-69
2022/10/10 10:43:51;;;;;;;58.23;3.03;;;;;;;;;;5109564;28;20610;-68
2022/10/10 10:46:30;;;;;;;57.60;2.30;;;;;;;;;;5111711;28;20467;-69
2022/10/10 10:49:00;;;;;;;58.97;3.97;;;;;;;;;;5111355;28;20484;-69
2022/10/10 10:51:33;;;;;;;58.50;2.77;;;;;;;;;;5111978;28;20450;-68
2022/10/10 10:54:06;;;;;;;59.53;3.40;;;;;;;;;;5111894;28;20437;-69
2022/10/10 10:56:36;;;;;;;57.70;2.67;;;;;;;;;;5112124;28;20465;-69
2022/10/10 10:59:14;;;;;;;58.77;3.20;;;;;;;;;;5110977;28;20445;-68
2022/10/10 11:01:43;;;;;;;57.67;2.80;;;;;;;;;;5112045;28;20447;-68
2022/10/10 11:04:17;;;;;;;57.90;2.80;;;;;;;;;;5111677;28;20446;-68
2022/10/10 11:06:51;;;;;;;57.77;2.80;;;;;;;;;;5112180;28;20819;-68
2022/10/10 11:09:21;;;;;;;66.43;4.70;;;;;;;;;;5111090;28;20496;-68
2022/10/10 11:11:56;;;;;;;57.67;2.33;;;;;;;;;;5111528;28;20450;-68
2022/10/10 11:14:33;;;;;;;58.20;2.67;;;;;;;;;;5109779;28;20449;-68
2022/10/10 11:17:04;;;;;;;57.77;2.50;;;;;;;;;;5111713;28;20976;-68
2022/10/10 11:19:34;;;;;;;57.90;2.70;;;;;;;;;;5111428;28;20816;-68
2022/10/10 11:22:02;;;;;;;60.17;3.30;;;;;;;;;;5111005;28;20452;-69
2022/10/10 11:24:34;;;;;;;57.70;2.40;;;;;;;;;;5111557;28;20450;-69
2022/10/10 11:27:03;;;;;;;58.33;2.83;;;;;;;;;;5111588;28;20475;-68
2022/10/10 11:29:34;;;;;;;57.87;2.37;;;;;;;;;;5111268;28;20485;-69
2022/10/10 11:32:03;;;;;;;59.50;2.60;;;;;;;;;;5111916;28;20452;-68
2022/10/10 11:34:34;;;;;;;57.57;2.30;;;;;;;;;;5111532;28;20459;-69
2022/10/10 11:37:05;;;;;;;58.00;2.40;;;;;;;;;;5111635;28;20469;-69
2022/10/10 11:39:34;;;;;;;58.00;2.40;;;;;;;;;;5110466;28;20914;-68
2022/10/10 11:42:03;;;;;;;58.17;2.53;;;;;;;;;;5111645;28;20505;-68
2022/10/10 11:44:33;;;;;;;57.33;2.10;;;;;;;;;;5111727;28;20445;-68
2022/10/10 11:47:02;;;;;;;58.23;2.50;;;;;;;;;;5109212;28;20474;-69
2022/10/10 11:49:34;;;;;;;57.60;2.03;;;;;;;;;;5111177;28;20485;-69
2022/10/10 11:52:11;;;;;;;59.80;3.00;;;;;;;;;;5110769;28;20457;-68
2022/10/10 11:54:41;;;;;;;58.40;2.27;;;;;;;;;;5111891;28;20451;-69
2022/10/10 11:57:12;;;;;;;58.10;2.70;;;;;;;;;;5115327;28;20451;-69
2022/10/10 11:59:44;;;;;;;57.83;2.27;;;;;;;;;;5114929;27;20809;-69
2022/10/10 12:02:16;;;;;;;58.37;2.97;;;;;;;;;;5115167;28;20441;-69
2022/10/10 12:04:43;;;;;;;58.77;2.30;;;;;;;;;;5114244;28;20829;-69
2022/10/10 12:07:13;;;;;;;57.50;2.50;;;;;;;;;;5115138;28;20445;-69
2022/10/10 12:09:42;;;;;;;57.70;2.20;;;;;;;;;;5114636;27;20487;-68
2022/10/10 12:12:12;;;;;;;57.47;2.43;;;;;;;;;;5114913;28;20468;-69
2022/10/10 12:14:42;;;;;;;57.80;2.87;;;;;;;;;;5114320;28;20942;-69
2022/10/10 12:17:19;;;;;;;58.33;2.30;;;;;;;;;;5113311;28;20450;-69
2022/10/10 12:19:47;;;;;;;57.80;2.20;;;;;;;;;;5094225;28;20474;-69
2022/10/10 12:22:23;;;;;;;57.90;2.40;;;;;;;;;;5094250;28;20962;-69
2022/10/10 12:25:06;;;;;;;58.07;2.10;;;;;;;;;;5094273;28;20442;-69
2022/10/10 12:27:44;;;;;;;57.40;2.47;;;;;;;;;;5093450;28;20772;-69
2022/10/10 12:30:23;;;;;;;60.33;2.60;;;;;;;;;;5093849;28;20478;-69
2022/10/10 12:32:54;;;;;;;57.70;2.90;;;;;;;;;;5094132;28;20457;-69
2022/10/10 12:35:35;;;;;;;57.70;2.50;;;;;;;;;;5093881;28;21009;-70
2022/10/10 12:38:09;;;;;;;57.17;2.10;;;;;;;;;;5093150;28;20450;-68
2022/10/10 12:41:00;;;;;;;57.07;2.17;;;;;;;;;;5093803;28;20452;-69
2022/10/10 12:43:37;;;;;;;57.57;2.30;;;;;;;;;;5093803;28;20451;-69
2022/10/10 12:46:23;;;;;;;60.60;2.20;;;;;;;;;;5094386;28;20474;-68
2022/10/10 12:49:06;;;;;;;57.07;2.00;;;;;;;;;;5093139;28;20482;-67
2022/10/10 12:51:35;;;;;;;57.07;2.20;;;;;;;;;;5093559;28;20446;-67
2022/10/10 12:54:03;;;;;;;58.27;2.80;;;;;;;;;;5093646;28;20438;-67
2022/10/10 12:56:35;;;;;;;59.40;2.80;;;;;;;;;;5093562;28;20458;-68
2022/10/10 12:59:03;;;;;;;58.10;2.30;;;;;;;;;;5093011;28;20438;-67
2022/10/10 13:01:33;;;;;;;57.07;2.40;;;;;;;;;;5092945;28;20447;-67
2022/10/10 13:04:00;;;;;;;57.50;2.33;;;;;;;;;;5093380;28;20447;-67
2022/10/10 13:06:32;;;;;;;58.37;2.77;;;;;;;;;;5092875;28;20473;-67
2022/10/10 13:09:02;;;;;;;59.97;2.43;;;;;;;;;;5093001;28;20478;-69
2022/10/10 13:11:29;;;;;;;60.67;2.70;;;;;;;;;;5093250;28;20476;-69
2022/10/10 13:13:57;;;;;;;57.80;2.70;;;;;;;;;;5093031;28;20448;-69
2022/10/10 13:16:25;;;;;;;59.60;3.63;;;;;;;;;;5093138;28;20470;-69
2022/10/10 13:18:53;;;;;;;58.13;2.50;;;;;;;;;;5092949;28;20445;-69
2022/10/10 13:21:22;;;;;;;57.70;2.40;;;;;;;;;;5096724;28;20450;-69
2022/10/10 13:23:52;;;;;;;58.00;2.60;;;;;;;;;;5113164;27;20527;-69
2022/10/10 13:26:21;;;;;;;58.97;2.63;;;;;;;;;;5113314;28;20469;-67
2022/10/10 13:28:48;;;;;;;58.67;2.97;;;;;;;;;;5113087;28;20538;-67
2022/10/10 13:31:16;;;;;;;58.37;2.30;;;;;;;;;;5113276;28;20456;-67
2022/10/10 13:33:43;;;;;;;63.30;3.70;;;;;;;;;;5113252;27;20494;-69
2022/10/10 13:36:18;;;;;;;58.00;2.80;;;;;;;;;;5112385;28;20476;-69
2022/10/10 13:38:46;;;;;;;57.47;2.30;;;;;;;;;;5113109;28;20445;-68
2022/10/10 13:41:14;;;;;;;57.73;2.30;;;;;;;;;;5113286;28;20449;-69
2022/10/10 13:43:41;;;;;;;58.00;2.70;;;;;;;;;;5113076;28;20457;-69
2022/10/10 13:46:19;;;;;;;58.30;2.40;;;;;;;;;;5112676;28;20968;-69
2022/10/10 13:48:46;;;;;;;58.40;2.40;;;;;;;;;;5112023;28;20445;-69
2022/10/10 13:51:14;;;;;;;58.97;2.77;;;;;;;;;;5113042;28;20805;-69
2022/10/10 13:53:46;;;;;;;57.70;2.20;;;;;;;;;;5111227;28;20457;-69
2022/10/10 13:56:17;;;;;;;60.37;2.37;;;;;;;;;;5112765;28;20469;-69
2022/10/10 13:58:46;;;;;;;57.87;2.50;;;;;;;;;;5111912;28;20495;-69
2022/10/10 14:01:21;;;;;;;57.47;2.10;;;;;;;;;;5112569;28;20448;-67
2022/10/10 14:03:49;;;;;;;57.57;2.70;;;;;;;;;;5112432;28;20960;-67
2022/10/10 14:06:18;;;;;;;58.43;2.57;;;;;;;;;;5112508;28;20468;-67
2022/10/10 14:08:45;;;;;;;57.60;2.30;;;;;;;;;;5112073;28;20930;-67
2022/10/10 14:11:16;;;;;;;57.30;2.10;;;;;;;;;;5111918;28;20449;-67
2022/10/10 14:13:47;;;;;;;57.13;2.10;;;;;;;;;;5112433;28;20446;-67
2022/10/10 14:16:22;;;;;;;58.47;2.27;;;;;;;;;;5112630;28;20465;-67
2022/10/10 14:18:50;;;;;;;57.93;2.60;;;;;;;;;;5111544;28;20449;-67
2022/10/10 14:21:17;;;;;;;60.37;3.23;;;;;;;;;;5112097;28;20454;-69
2022/10/10 14:23:44;;;;;;;57.60;2.30;;;;;;;;;;5112110;28;20446;-69
2022/10/10 14:26:13;;;;;;;60.23;2.00;;;;;;;;;;5110211;28;20472;-69
2022/10/10 14:28:42;;;;;;;59.50;2.50;;;;;;;;;;5111940;28;20457;-69
2022/10/10 14:31:09;;;;;;;58.00;2.83;;;;;;;;;;5112351;28;20482;-69
2022/10/10 14:33:36;;;;;;;59.50;2.60;;;;;;;;;;5111553;28;20449;-69
2022/10/10 14:36:04;;;;;;;57.50;2.10;;;;;;;;;;5112071;28;21005;-69
2022/10/10 14:38:32;;;;;;;59.23;2.03;;;;;;;;;;5111993;28;20476;-69
2022/10/10 14:41:00;;;;;;;57.67;2.60;;;;;;;;;;5111978;27;20532;-69
2022/10/10 14:43:27;;;;;;;57.90;2.53;;;;;;;;;;5112329;28;20453;-69